createdAt,value
2022-07-27T00:00:08.857Z,19.5
2022-07-27T00:05:12.146Z,19.4
2022-07-27T00:10:15.049Z,19.4
2022-07-27T00:15:18.391Z,19.2
2022-07-27T00:20:28.553Z,19.2
2022-07-27T00:25:21.488Z,19.4
2022-07-27T00:30:23.937Z,19.3
2022-07-27T00:35:27.547Z,19.4
2022-07-27T00:40:30.403Z,19
2022-07-27T00:45:32.828Z,18.9
2022-07-27T00:50:35.597Z,18.8
2022-07-27T00:55:38.536Z,18.7
2022-07-27T01:00:41.120Z,18.7
2022-07-27T01:05:46.114Z,19
2022-07-27T01:10:51.677Z,19
2022-07-27T01:15:54.585Z,19
2022-07-27T01:20:57.181Z,19
2022-07-27T01:25:59.573Z,19
2022-07-27T01:31:02.556Z,19.1
2022-07-27T01:36:05.357Z,19.1
2022-07-27T01:41:08.081Z,18.4
2022-07-27T01:46:10.947Z,18.4
2022-07-27T01:51:13.830Z,18.2
2022-07-27T01:56:16.388Z,18.2
2022-07-27T02:01:19.094Z,18.1
2022-07-27T02:06:22.351Z,18.1
2022-07-27T02:11:26.548Z,18.1
2022-07-27T02:16:30.665Z,18.1
2022-07-27T02:21:33.856Z,18.1
2022-07-27T02:26:36.856Z,18
2022-07-27T02:31:40.179Z,17.9
2022-07-27T02:36:42.962Z,17.8
2022-07-27T02:41:46.302Z,17.6
2022-07-27T02:46:49.178Z,17.5
2022-07-27T02:51:52.302Z,17.7
2022-07-27T02:56:55.581Z,17.8
2022-07-27T03:01:58.697Z,17.9
2022-07-27T03:07:01.704Z,17.9
2022-07-27T03:12:04.642Z,17.7
2022-07-27T03:17:07.521Z,17.5
2022-07-27T03:22:10.178Z,17.5
2022-07-27T03:27:13.257Z,17.6
2022-07-27T03:32:15.922Z,17.6
2022-07-27T03:37:18.813Z,17.8
2022-07-27T03:42:22.317Z,18
2022-07-27T03:47:25.255Z,18.1
2022-07-27T03:52:27.796Z,18.1
2022-07-27T03:57:31.036Z,18.5
2022-07-27T04:02:34.468Z,18.7
2022-07-27T04:07:37.526Z,19
2022-07-27T04:12:42.493Z,19.1
2022-07-27T04:17:59.020Z,19
2022-07-27T04:22:51.895Z,19
2022-07-27T04:27:54.219Z,19
2022-07-27T04:32:56.567Z,19.6
2022-07-27T04:38:01.434Z,20.5
2022-07-27T04:43:03.780Z,20.5
2022-07-27T04:48:06.118Z,20.9
2022-07-27T04:53:08.933Z,21.7
2022-07-27T04:58:12.157Z,22
2022-07-27T05:03:14.411Z,21.9
2022-07-27T05:08:16.780Z,22.3
2022-07-27T05:13:19.326Z,23
2022-07-27T05:18:22.215Z,23.2
2022-07-27T05:23:24.636Z,23.2
2022-07-27T05:28:27.273Z,23.6
2022-07-27T05:33:29.874Z,23.8
2022-07-27T05:38:32.377Z,24.1
2022-07-27T05:43:35.235Z,24.9
2022-07-27T05:48:37.931Z,25.4
2022-07-27T05:53:40.345Z,25.3
2022-07-27T05:58:43.068Z,26
2022-07-27T06:03:45.919Z,26.1
2022-07-27T06:08:48.398Z,26.1
2022-07-27T06:13:50.997Z,26.8
2022-07-27T06:18:54.212Z,27
2022-07-27T06:23:56.748Z,26.9
2022-07-27T06:29:00.144Z,26.8
2022-07-27T06:34:06.285Z,26.4
2022-07-27T06:39:06.746Z,27.1
2022-07-27T06:44:10.026Z,27.7
2022-07-27T06:49:14.801Z,28.5
2022-07-27T06:54:18.834Z,28.7
2022-07-27T06:59:21.325Z,28.7
2022-07-27T07:04:27.372Z,29.2
2022-07-27T07:09:29.671Z,29.1
2022-07-27T07:14:33.030Z,29.7
2022-07-27T07:19:35.581Z,29.5
2022-07-27T07:24:37.870Z,29.5
2022-07-27T07:29:40.581Z,30.7
2022-07-27T07:34:43.482Z,30
2022-07-27T07:39:46.249Z,29.9
2022-07-27T07:44:48.958Z,30
2022-07-27T07:49:51.727Z,29.6
2022-07-27T07:54:54.093Z,29.5
2022-07-27T07:59:56.466Z,29.9
2022-07-27T08:04:59.101Z,29.9
2022-07-27T08:10:01.446Z,29.9
2022-07-27T08:15:04.009Z,29.9
2022-07-27T08:20:08.520Z,30.9
2022-07-27T08:25:12.379Z,30.2
2022-07-27T08:30:16.635Z,27.9
2022-07-27T08:35:20.239Z,27.8
2022-07-27T08:40:53.093Z,29.5
2022-07-27T08:45:25.764Z,30.7
2022-07-27T08:50:28.250Z,30.6
2022-07-27T08:55:30.701Z,31
2022-07-27T09:00:33.366Z,32.3
2022-07-27T09:05:39.900Z,33.1
2022-07-27T09:10:42.520Z,33
2022-07-27T09:16:21.369Z,33.7
2022-07-27T09:20:54.089Z,33.7
2022-07-27T09:26:30.278Z,34.7
2022-07-27T09:31:05.998Z,33.1
2022-07-27T09:36:08.523Z,33
2022-07-27T09:41:15.394Z,31.8
2022-07-27T09:46:20.420Z,32
2022-07-27T09:52:02.898Z,35.2
2022-07-27T09:56:25.668Z,35.6
2022-07-27T10:01:28.505Z,37.8
2022-07-27T10:07:00.682Z,36.6
2022-07-27T10:11:37.559Z,36.5
2022-07-27T10:16:40.234Z,38.3
2022-07-27T10:21:43.185Z,39.4
2022-07-27T10:26:46.685Z,39.1
2022-07-27T10:31:50.540Z,39.1
2022-07-27T10:36:53.334Z,39.2
2022-07-27T10:41:55.672Z,39.2
2022-07-27T10:46:58.235Z,36
2022-07-27T10:52:01.459Z,37.4
2022-07-27T10:57:03.858Z,37.4
2022-07-27T11:02:06.670Z,36.9
2022-07-27T11:07:44.828Z,38.2
2022-07-27T11:12:15.098Z,37.7
2022-07-27T11:18:03.208Z,35.3
2022-07-27T11:27:33.160Z,38.1
2022-07-27T11:32:35.876Z,36.5
2022-07-27T11:37:45.189Z,37.9
2022-07-27T11:42:47.567Z,37.9
2022-07-27T11:47:50.315Z,37
2022-07-27T11:52:52.770Z,37
2022-07-27T11:57:59.690Z,36.7
2022-07-27T12:03:03.134Z,33.9
2022-07-27T12:08:06.691Z,33.9
2022-07-27T12:13:10.416Z,34.2
2022-07-27T12:18:12.949Z,35.1
2022-07-27T12:23:15.178Z,35.1
2022-07-27T12:28:17.907Z,33.1
2022-07-27T12:33:20.872Z,32.4
2022-07-27T12:38:23.478Z,32.3
2022-07-27T12:43:25.824Z,32.7
2022-07-27T12:48:28.634Z,33
2022-07-27T12:53:31.764Z,33.5
2022-07-27T12:58:34.155Z,33.5
2022-07-27T13:03:39.091Z,33.9
2022-07-27T13:08:42.025Z,33.3
2022-07-27T13:13:44.902Z,33.5
2022-07-27T13:18:47.656Z,33.3
2022-07-27T13:23:50.708Z,33.4
2022-07-27T13:28:53.470Z,33.4
2022-07-27T13:33:56.445Z,33.4
2022-07-27T13:38:59.101Z,33.6
2022-07-27T13:44:01.737Z,33.3
2022-07-27T13:49:04.677Z,32.7
2022-07-27T13:54:08.089Z,32.7
2022-07-27T13:59:14.569Z,32.5
2022-07-27T14:04:21.294Z,32.4
2022-07-27T14:09:24.535Z,32.4
2022-07-27T14:14:29.043Z,31.9
2022-07-27T14:19:32.671Z,31.9
2022-07-27T14:24:40.449Z,32
2022-07-27T14:29:43.102Z,32
2022-07-27T14:34:45.498Z,32.1
2022-07-27T14:39:47.883Z,32.2
2022-07-27T14:44:50.680Z,31.7
2022-07-27T14:49:54.388Z,31.5
2022-07-27T14:54:56.964Z,31.4
2022-07-27T14:59:59.421Z,31.8
2022-07-27T15:05:02.805Z,31.7
2022-07-27T15:10:05.499Z,31.2
2022-07-27T15:15:08.007Z,31.1
2022-07-27T15:20:10.693Z,30.9
2022-07-27T15:25:14.846Z,31.1
2022-07-27T15:30:22.216Z,31.1
2022-07-27T15:35:24.799Z,31
2022-07-27T15:40:27.115Z,31.1
2022-07-27T15:45:29.743Z,31.1
2022-07-27T15:50:32.697Z,30.8
2022-07-27T15:55:35.962Z,30.7
2022-07-27T16:00:43.529Z,30.4
2022-07-27T16:05:46.522Z,30.4
2022-07-27T16:10:50.281Z,30.3
2022-07-27T16:15:53.278Z,30.3
2022-07-27T16:20:56.151Z,30.5
2022-07-27T16:26:09.232Z,30.3
2022-07-27T16:31:02.327Z,30.1
2022-07-27T16:36:09.649Z,30.1
2022-07-27T16:41:12.097Z,30
2022-07-27T16:46:17.713Z,30.4
2022-07-27T16:51:20.378Z,30.3
2022-07-27T16:56:22.777Z,30.2
2022-07-27T17:01:29.141Z,29.7
2022-07-27T17:06:32.062Z,29.7
2022-07-27T17:11:39.185Z,29.3
2022-07-27T17:16:52.861Z,29.2
2022-07-27T17:21:45.487Z,29
2022-07-27T17:26:47.807Z,29
2022-07-27T17:31:50.947Z,28.8
2022-07-27T17:36:53.221Z,28.7
2022-07-27T17:41:55.585Z,28.6
2022-07-27T17:46:58.466Z,28.3
2022-07-27T17:52:01.182Z,28.2
2022-07-27T17:57:03.774Z,28.2
2022-07-27T18:02:07.212Z,28.1
2022-07-27T18:07:10.870Z,28.2
2022-07-27T18:12:13.737Z,28.1
2022-07-27T18:17:16.452Z,28.1
2022-07-27T18:22:19.465Z,28
2022-07-27T18:27:22.445Z,27.9
2022-07-27T18:32:25.104Z,27.9
2022-07-27T18:37:27.922Z,27.7
2022-07-27T18:42:30.375Z,27.7
2022-07-27T18:47:32.857Z,27.5
2022-07-27T18:52:35.290Z,27.4
2022-07-27T18:57:37.958Z,27.3
2022-07-27T19:02:44.198Z,27
2022-07-27T19:07:48.963Z,26.8
2022-07-27T19:12:52.847Z,26.8
2022-07-27T19:17:56.190Z,26.8
2022-07-27T19:22:59.200Z,26.7
2022-07-27T19:28:02.259Z,26.5
2022-07-27T19:33:04.887Z,26.5
2022-07-27T19:38:07.702Z,26.2
2022-07-27T19:43:10.628Z,26.2
2022-07-27T19:48:13.802Z,26.2
2022-07-27T19:53:16.829Z,26
2022-07-27T19:58:21.296Z,25.9
2022-07-27T20:03:23.608Z,25.9
2022-07-27T20:08:26.380Z,25.5
2022-07-27T20:13:28.992Z,25.4
2022-07-27T20:18:31.598Z,25.3
2022-07-27T20:23:34.045Z,25.3
2022-07-27T20:28:36.531Z,25.2
2022-07-27T20:33:39.200Z,25
2022-07-27T20:38:42.667Z,24.3
2022-07-27T20:43:45.464Z,23.6
2022-07-27T20:48:48.540Z,23
2022-07-27T20:53:51.923Z,22.9
2022-07-27T20:58:55.192Z,22.6
2022-07-27T21:03:58.289Z,22.7
2022-07-27T21:09:01.295Z,22.7
2022-07-27T21:14:03.905Z,22.7
2022-07-27T21:19:06.579Z,22.6
2022-07-27T21:24:11.348Z,22.7
2022-07-27T21:29:15.043Z,22.6
2022-07-27T21:34:18.315Z,22.7
2022-07-27T21:39:21.140Z,22.7
2022-07-27T21:44:23.599Z,22.7
2022-07-27T21:49:36.398Z,22.6
2022-07-27T21:54:29.675Z,22.6
2022-07-27T21:59:32.442Z,22.5
2022-07-27T22:04:35.195Z,22.4
2022-07-27T22:09:45.248Z,22.5
2022-07-27T22:14:47.556Z,22.4
2022-07-27T22:19:50.048Z,22.4
2022-07-27T22:24:52.306Z,22.4
2022-07-27T22:29:54.680Z,22.4
2022-07-27T22:34:57.201Z,22.3
2022-07-27T22:39:59.960Z,22.2
2022-07-27T22:45:02.540Z,22.1
2022-07-27T22:50:05.119Z,22.1
2022-07-27T22:55:07.685Z,22.1
2022-07-27T23:00:12.264Z,22
2022-07-27T23:05:15.064Z,22
2022-07-27T23:10:18.031Z,22
2022-07-27T23:15:20.597Z,22
2022-07-27T23:20:23.474Z,21.9
2022-07-27T23:25:37.752Z,21.8
2022-07-27T23:30:31.137Z,21.8
2022-07-27T23:35:34.423Z,21.6
2022-07-27T23:40:37.109Z,21.6
2022-07-27T23:45:39.533Z,21.6
2022-07-27T23:50:43.086Z,21.5
2022-07-27T23:55:45.844Z,21.4
